createdAt,value
2018-05-27T00:01:12.085Z,7.65
2018-05-27T00:03:40.157Z,7.87
2018-05-27T00:06:08.230Z,7.18
2018-05-27T00:08:36.285Z,7.28
2018-05-27T00:11:04.345Z,7.20
2018-05-27T00:13:33.117Z,7.05
2018-05-27T00:16:01.221Z,7.25
2018-05-27T00:18:29.272Z,7.65
2018-05-27T00:20:57.656Z,7.72
2018-05-27T00:23:25.728Z,7.22
2018-05-27T00:25:53.785Z,7.45
2018-05-27T00:28:21.865Z,8.00
2018-05-27T00:30:49.929Z,6.80
2018-05-27T00:33:18.001Z,6.60
2018-05-27T00:35:46.455Z,7.97
2018-05-27T00:38:14.681Z,7.97
2018-05-27T00:40:43.706Z,6.82
2018-05-27T00:43:12.885Z,7.32
2018-05-27T00:45:40.959Z,8.15
2018-05-27T00:48:09.009Z,7.50
2018-05-27T00:50:37.377Z,7.65
2018-05-27T00:53:05.481Z,7.60
2018-05-27T00:55:33.525Z,7.45
2018-05-27T00:58:01.796Z,7.62
2018-05-27T01:00:29.856Z,7.00
2018-05-27T01:02:57.925Z,6.85
2018-05-27T01:05:26.253Z,7.30
2018-05-27T01:07:55.065Z,7.30
2018-05-27T01:10:23.112Z,7.45
2018-05-27T01:12:51.965Z,7.55
2018-05-27T01:15:21.578Z,7.68
2018-05-27T01:17:49.633Z,7.18
2018-05-27T01:20:18.224Z,7.68
2018-05-27T01:22:46.290Z,7.97
2018-05-27T01:25:14.355Z,7.85
2018-05-27T01:27:42.777Z,8.05
2018-05-27T01:30:10.849Z,7.78
2018-05-27T01:32:38.901Z,7.57
2018-05-27T01:35:06.977Z,7.37
2018-05-27T01:37:35.060Z,7.35
2018-05-27T01:40:03.153Z,7.00
2018-05-27T01:42:33.123Z,7.65
2018-05-27T01:45:01.207Z,7.68
2018-05-27T01:47:29.309Z,7.28
2018-05-27T01:49:57.984Z,7.40
2018-05-27T01:52:26.080Z,7.90
2018-05-27T01:54:54.924Z,7.80
2018-05-27T01:57:23.005Z,7.82
2018-05-27T01:59:51.065Z,7.62
2018-05-27T02:02:19.125Z,7.55
2018-05-27T02:04:47.504Z,7.82
2018-05-27T02:07:15.589Z,8.00
2018-05-27T02:09:43.679Z,8.25
2018-05-27T02:12:11.889Z,7.70
2018-05-27T02:14:40.741Z,7.90
2018-05-27T02:17:09.205Z,8.13
2018-05-27T02:19:37.573Z,8.25
2018-05-27T02:22:05.632Z,7.75
2018-05-27T02:24:33.709Z,7.30
2018-05-27T02:27:02.197Z,8.30
2018-05-27T02:29:31.525Z,9.00
2018-05-27T02:31:59.569Z,8.40
2018-05-27T02:34:27.631Z,8.20
2018-05-27T02:36:55.929Z,8.20
2018-05-27T02:39:23.989Z,8.23
2018-05-27T02:41:52.045Z,8.18
2018-05-27T02:44:20.143Z,8.27
2018-05-27T02:46:48.229Z,8.20
2018-05-27T02:49:16.301Z,8.13
2018-05-27T02:51:44.381Z,8.02
2018-05-27T02:54:12.504Z,7.82
2018-05-27T02:56:40.585Z,8.02
2018-05-27T02:59:08.666Z,8.02
2018-05-27T03:01:36.761Z,8.05
2018-05-27T03:04:04.817Z,8.27
2018-05-27T03:06:33.146Z,7.97
2018-05-27T03:09:01.185Z,8.18
2018-05-27T03:11:29.265Z,7.95
2018-05-27T03:13:57.601Z,8.20
2018-05-27T03:16:25.659Z,8.32
2018-05-27T03:18:53.734Z,7.87
2018-05-27T03:21:22.148Z,8.40
2018-05-27T03:23:50.193Z,7.93
2018-05-27T03:26:18.252Z,8.27
2018-05-27T03:28:46.644Z,7.78
2018-05-27T03:31:14.733Z,8.02
2018-05-27T03:33:42.789Z,8.70
2018-05-27T03:36:11.268Z,7.78
2018-05-27T03:38:39.328Z,8.48
2018-05-27T03:41:07.423Z,7.72
2018-05-27T03:43:35.584Z,7.75
2018-05-27T03:46:03.685Z,7.68
2018-05-27T03:48:31.716Z,8.32
2018-05-27T03:50:59.792Z,7.45
2018-05-27T03:53:27.880Z,7.75
2018-05-27T03:55:55.968Z,8.05
2018-05-27T03:58:24.316Z,8.02
2018-05-27T04:00:52.405Z,8.35
2018-05-27T04:03:20.461Z,7.37
2018-05-27T04:05:48.565Z,8.40
2018-05-27T04:08:16.800Z,7.45
2018-05-27T04:10:44.867Z,7.43
2018-05-27T04:13:13.188Z,7.82
2018-05-27T04:15:41.261Z,8.13
2018-05-27T04:18:10.825Z,7.93
2018-05-27T04:20:39.348Z,7.70
2018-05-27T04:23:07.396Z,7.53
2018-05-27T04:25:35.479Z,8.00
2018-05-27T04:28:03.573Z,7.87
2018-05-27T04:30:31.620Z,7.50
2018-05-27T04:32:59.776Z,7.53
2018-05-27T04:35:28.185Z,7.37
2018-05-27T04:37:56.253Z,7.50
2018-05-27T04:40:24.326Z,6.97
2018-05-27T04:42:52.913Z,7.35
2018-05-27T04:45:20.985Z,7.28
2018-05-27T04:47:49.024Z,7.03
2018-05-27T04:50:17.432Z,6.55
2018-05-27T04:52:45.529Z,7.35
2018-05-27T04:55:14.377Z,7.50
2018-05-27T04:57:42.477Z,7.20
2018-05-27T05:00:10.549Z,6.75
2018-05-27T05:02:38.624Z,7.20
2018-05-27T05:05:06.744Z,7.72
2018-05-27T05:07:34.815Z,8.68
2018-05-27T05:10:02.888Z,7.93
2018-05-27T05:12:30.965Z,7.37
2018-05-27T05:14:59.108Z,7.97
2018-05-27T05:17:27.137Z,7.90
2018-05-27T05:19:55.233Z,7.35
2018-05-27T05:22:24.264Z,8.07
2018-05-27T05:24:52.313Z,8.85
2018-05-27T05:27:20.653Z,7.70
2018-05-27T05:29:48.725Z,7.55
2018-05-27T05:32:16.764Z,7.68
2018-05-27T05:34:45.458Z,8.20
2018-05-27T05:37:13.509Z,8.15
2018-05-27T05:39:41.581Z,8.13
2018-05-27T05:42:09.669Z,8.77
2018-05-27T05:44:37.729Z,7.57
2018-05-27T05:47:05.795Z,7.35
2018-05-27T05:49:34.192Z,7.70
2018-05-27T05:52:02.249Z,7.40
2018-05-27T05:54:30.324Z,6.85
2018-05-27T05:56:58.737Z,6.93
2018-05-27T05:59:26.809Z,6.55
2018-05-27T06:01:55.663Z,7.68
2018-05-27T06:04:23.763Z,7.12
2018-05-27T06:06:51.845Z,7.25
2018-05-27T06:09:19.884Z,7.35
2018-05-27T06:11:48.704Z,6.78
2018-05-27T06:14:16.773Z,7.18
2018-05-27T06:16:44.844Z,6.62
2018-05-27T06:19:12.933Z,7.30
2018-05-27T06:21:41.000Z,6.90
2018-05-27T06:24:09.075Z,7.47
2018-05-27T06:26:37.165Z,7.03
2018-05-27T06:29:05.989Z,7.45
2018-05-27T06:31:34.077Z,7.05
2018-05-27T06:34:02.665Z,6.70
2018-05-27T06:36:31.012Z,7.22
2018-05-27T06:38:59.085Z,6.87
2018-05-27T06:41:27.184Z,7.15
2018-05-27T06:43:55.272Z,7.65
2018-05-27T06:46:23.319Z,7.18
2018-05-27T06:48:51.419Z,7.15
2018-05-27T06:51:20.309Z,7.53
2018-05-27T06:53:48.345Z,6.95
2018-05-27T06:56:16.416Z,6.50
2018-05-27T06:58:44.512Z,6.65
2018-05-27T07:01:12.673Z,6.80
2018-05-27T07:03:41.069Z,6.80
2018-05-27T07:06:09.141Z,6.00
2018-05-27T07:08:37.213Z,6.40
2018-05-27T07:11:05.313Z,6.47
2018-05-27T07:13:34.157Z,6.47
2018-05-27T07:16:02.217Z,6.22
2018-05-27T07:18:30.786Z,6.43
2018-05-27T07:20:58.836Z,6.35
2018-05-27T07:23:26.937Z,6.87
2018-05-27T07:25:55.524Z,6.10
2018-05-27T07:28:23.609Z,6.10
2018-05-27T07:30:51.701Z,6.28
2018-05-27T07:33:20.038Z,5.95
2018-05-27T07:35:48.109Z,6.03
2018-05-27T07:38:16.225Z,5.97
2018-05-27T07:40:44.779Z,5.37
2018-05-27T07:43:12.834Z,5.78
2018-05-27T07:45:40.907Z,5.53
2018-05-27T07:48:09.009Z,5.70
2018-05-27T07:50:37.280Z,5.37
2018-05-27T07:53:05.337Z,5.55
2018-05-27T07:55:33.420Z,5.25
2018-05-27T07:58:01.505Z,5.50
2018-05-27T08:00:29.551Z,4.90
2018-05-27T08:02:58.057Z,4.72
2018-05-27T08:05:26.102Z,4.43
2018-05-27T08:07:54.162Z,5.15
2018-05-27T08:10:22.244Z,4.90
2018-05-27T08:12:50.332Z,4.95
2018-05-27T08:15:18.604Z,5.20
2018-05-27T08:17:46.971Z,4.78
2018-05-27T08:20:15.033Z,4.90
2018-05-27T08:22:43.125Z,4.90
2018-05-27T08:25:11.416Z,4.53
2018-05-27T08:27:39.490Z,4.80
2018-05-27T08:30:07.533Z,5.10
2018-05-27T08:32:35.608Z,4.45
2018-05-27T08:35:03.721Z,4.70
2018-05-27T08:37:31.737Z,4.70
2018-05-27T08:40:00.506Z,4.40
2018-05-27T08:42:28.541Z,4.80
2018-05-27T08:44:57.383Z,4.60
2018-05-27T08:47:26.284Z,4.50
2018-05-27T08:49:54.369Z,4.45
2018-05-27T08:52:22.457Z,4.50
2018-05-27T08:54:50.806Z,4.50
2018-05-27T08:57:18.894Z,4.78
2018-05-27T08:59:47.664Z,3.33
2018-05-27T09:02:15.728Z,3.60
2018-05-27T09:04:43.794Z,3.37
2018-05-27T09:07:12.129Z,4.35
2018-05-27T09:09:40.204Z,4.20
2018-05-27T09:12:08.273Z,4.30
2018-05-27T09:14:36.632Z,3.47
2018-05-27T09:17:04.676Z,3.20
2018-05-27T09:19:32.737Z,4.30
2018-05-27T09:22:01.129Z,3.70
2018-05-27T09:24:29.189Z,4.70
2018-05-27T09:26:57.257Z,4.30
2018-05-27T09:29:25.345Z,4.03
2018-05-27T09:31:53.425Z,4.40
2018-05-27T09:34:21.514Z,4.82
2018-05-27T09:36:50.394Z,4.18
2018-05-27T09:39:18.509Z,4.68
2018-05-27T09:41:46.507Z,4.65
2018-05-27T09:44:14.821Z,4.43
2018-05-27T09:46:42.897Z,4.10
2018-05-27T09:49:11.128Z,3.60
2018-05-27T09:51:39.521Z,3.60
2018-05-27T09:54:07.609Z,3.47
2018-05-27T09:56:35.705Z,3.20
2018-05-27T09:59:03.789Z,3.20
2018-05-27T10:01:32.692Z,3.10
2018-05-27T10:04:00.741Z,3.20
2018-05-27T10:06:29.821Z,3.00
2018-05-27T10:08:57.893Z,3.22
2018-05-27T10:11:25.965Z,3.20
2018-05-27T10:13:54.049Z,3.40
2018-05-27T10:16:22.089Z,3.25
2018-05-27T10:18:50.149Z,3.50
2018-05-27T10:21:18.253Z,3.40
2018-05-27T10:23:46.321Z,3.75
2018-05-27T10:26:14.407Z,3.58
2018-05-27T10:28:42.741Z,3.40
2018-05-27T10:31:10.829Z,3.70
2018-05-27T10:33:38.885Z,3.70
2018-05-27T10:36:07.277Z,3.95
2018-05-27T10:38:36.269Z,3.62
2018-05-27T10:41:04.357Z,3.40
2018-05-27T10:43:32.664Z,4.28
2018-05-27T10:46:00.740Z,4.40
2018-05-27T10:48:28.811Z,4.20
2018-05-27T10:50:57.828Z,4.03
2018-05-27T10:53:25.903Z,4.18
2018-05-27T10:55:53.949Z,3.87
2018-05-27T10:58:22.260Z,4.25
2018-05-27T11:00:50.326Z,3.85
2018-05-27T11:03:18.519Z,3.90
2018-05-27T11:05:46.681Z,3.78
2018-05-27T11:08:14.652Z,4.07
2018-05-27T11:10:42.733Z,3.97
2018-05-27T11:13:11.097Z,3.85
2018-05-27T11:15:39.165Z,4.00
2018-05-27T11:18:07.257Z,4.28
2018-05-27T11:20:35.651Z,4.03
2018-05-27T11:23:03.692Z,4.28
2018-05-27T11:25:31.754Z,3.83
2018-05-27T11:28:00.141Z,4.32
2018-05-27T11:30:28.227Z,4.00
2018-05-27T11:32:56.313Z,4.00
2018-05-27T11:35:24.590Z,3.65
2018-05-27T11:37:52.632Z,4.50
2018-05-27T11:40:20.690Z,4.15
2018-05-27T11:42:49.017Z,3.65
2018-05-27T11:45:17.097Z,4.18
2018-05-27T11:47:45.958Z,3.97
2018-05-27T11:50:14.057Z,3.90
2018-05-27T11:52:42.276Z,4.10
2018-05-27T11:55:10.324Z,4.05
2018-05-27T11:57:38.641Z,4.00
2018-05-27T12:00:06.724Z,4.18
2018-05-27T12:02:34.784Z,5.00
2018-05-27T12:05:03.265Z,4.72
2018-05-27T12:07:31.318Z,4.93
2018-05-27T12:09:59.396Z,4.62
2018-05-27T12:12:27.505Z,4.50
2018-05-27T12:14:55.589Z,4.57
2018-05-27T12:17:23.733Z,4.55
2018-05-27T12:19:52.124Z,4.85
2018-05-27T12:22:20.169Z,4.43
2018-05-27T12:24:48.233Z,4.05
2018-05-27T12:27:16.620Z,4.55
2018-05-27T12:29:44.775Z,4.53
2018-05-27T12:32:12.804Z,4.32
2018-05-27T12:34:41.069Z,4.03
2018-05-27T12:37:09.137Z,3.92
2018-05-27T12:39:37.208Z,4.45
2018-05-27T12:42:05.604Z,4.43
2018-05-27T12:44:34.437Z,4.60
2018-05-27T12:47:02.509Z,4.35
2018-05-27T12:49:30.841Z,4.30
2018-05-27T12:51:58.880Z,4.80
2018-05-27T12:54:26.941Z,4.50
2018-05-27T12:56:55.492Z,4.90
2018-05-27T12:59:24.300Z,4.37
2018-05-27T13:01:52.371Z,4.78
2018-05-27T13:04:20.551Z,4.20
2018-05-27T13:06:48.949Z,4.82
2018-05-27T13:09:17.040Z,5.78
2018-05-27T13:11:45.142Z,6.22
2018-05-27T13:14:13.985Z,5.45
2018-05-27T13:16:42.180Z,7.50
2018-05-27T13:19:10.947Z,8.15
2018-05-27T13:21:39.017Z,7.30
2018-05-27T13:24:07.081Z,7.55
2018-05-27T13:26:35.497Z,10.00
2018-05-27T13:29:03.585Z,11.65
2018-05-27T13:31:32.421Z,9.02
2018-05-27T13:34:01.106Z,10.18
2018-05-27T13:36:29.177Z,11.95
2018-05-27T13:38:57.285Z,14.55
2018-05-27T13:41:25.389Z,9.40
2018-05-27T13:43:54.220Z,8.68
2018-05-27T13:46:23.051Z,11.80
2018-05-27T13:48:51.929Z,11.10
2018-05-27T13:51:20.009Z,9.60
2018-05-27T13:53:49.208Z,10.75
2018-05-27T13:56:18.902Z,10.38
2018-05-27T13:58:46.972Z,11.05
2018-05-27T14:01:15.045Z,11.43
2018-05-27T14:03:43.124Z,32.50
2018-05-27T14:06:12.007Z,20.50
2018-05-27T14:08:41.006Z,12.40
2018-05-27T14:11:09.084Z,12.23
2018-05-27T14:13:38.889Z,13.10
2018-05-27T14:16:07.798Z,21.90
2018-05-27T14:18:36.674Z,11.80
2018-05-27T14:21:04.744Z,8.45
2018-05-27T14:23:33.593Z,9.95
2018-05-27T14:26:01.716Z,10.48
2018-05-27T14:28:30.385Z,11.63
2018-05-27T14:30:58.472Z,12.48
2018-05-27T14:33:27.319Z,11.52
2018-05-27T14:35:55.693Z,9.07
2018-05-27T14:38:23.881Z,9.68
2018-05-27T14:40:51.936Z,9.85
2018-05-27T14:43:20.856Z,9.63
2018-05-27T14:45:48.913Z,9.38
2018-05-27T14:48:17.008Z,8.48
2018-05-27T14:50:45.349Z,9.27
2018-05-27T14:53:13.420Z,10.20
2018-05-27T14:55:41.529Z,9.73
2018-05-27T14:58:09.595Z,8.10
2018-05-27T15:00:37.664Z,7.50
2018-05-27T15:03:05.739Z,7.97
2018-05-27T15:05:34.329Z,7.07
2018-05-27T15:08:03.117Z,8.32
2018-05-27T15:10:31.196Z,8.50
2018-05-27T15:13:00.045Z,7.72
2018-05-27T15:15:28.416Z,7.90
2018-05-27T15:17:56.533Z,9.02
2018-05-27T15:20:25.393Z,8.13
2018-05-27T15:22:53.749Z,9.07
2018-05-27T15:25:21.869Z,10.55
2018-05-27T15:27:51.476Z,9.85
2018-05-27T15:30:20.161Z,9.60
2018-05-27T15:32:49.033Z,9.13
2018-05-27T15:35:17.085Z,9.25
2018-05-27T15:37:45.205Z,8.27
2018-05-27T15:40:14.085Z,8.15
2018-05-27T15:42:42.161Z,9.30
2018-05-27T15:45:11.933Z,9.63
2018-05-27T15:47:40.041Z,10.07
2018-05-27T15:50:08.121Z,11.38
2018-05-27T15:52:37.720Z,10.23
2018-05-27T15:55:05.769Z,9.57
2018-05-27T15:57:35.241Z,9.48
2018-05-27T16:00:04.154Z,8.80
2018-05-27T16:02:32.220Z,9.35
2018-05-27T16:05:00.330Z,9.95
2018-05-27T16:07:28.420Z,9.45
2018-05-27T16:09:58.212Z,8.38
2018-05-27T16:12:26.261Z,8.85
2018-05-27T16:14:55.793Z,8.70
2018-05-27T16:17:24.540Z,9.27
2018-05-27T16:19:52.612Z,9.13
2018-05-27T16:22:21.542Z,9.27
2018-05-27T16:24:49.589Z,9.50
2018-05-27T16:27:17.680Z,11.32
2018-05-27T16:29:45.785Z,12.88
2018-05-27T16:32:13.849Z,11.40
2018-05-27T16:34:41.949Z,11.98
2018-05-27T16:37:10.065Z,12.37
2018-05-27T16:39:38.135Z,11.95
2018-05-27T16:42:06.222Z,12.45
2018-05-27T16:44:35.309Z,12.73
2018-05-27T16:47:03.537Z,11.93
2018-05-27T16:49:31.617Z,13.10
2018-05-27T16:51:59.736Z,14.38
2018-05-27T16:54:28.583Z,14.90
2018-05-27T16:56:56.653Z,13.55
2018-05-27T16:59:25.661Z,12.02
2018-05-27T17:01:53.757Z,11.32
2018-05-27T17:04:21.840Z,11.85
2018-05-27T17:06:51.025Z,11.73
2018-05-27T17:09:19.092Z,11.55
2018-05-27T17:11:47.177Z,10.88
2018-05-27T17:14:16.878Z,11.10
2018-05-27T17:16:44.960Z,10.73
2018-05-27T17:19:13.841Z,11.20
2018-05-27T17:21:42.281Z,12.10
2018-05-27T17:24:10.397Z,11.00
2018-05-27T17:26:39.284Z,11.82
2018-05-27T17:29:07.661Z,11.85
2018-05-27T17:31:35.725Z,11.98
2018-05-27T17:34:03.776Z,12.57
2018-05-27T17:36:32.181Z,13.18
2018-05-27T17:39:00.409Z,12.60
2018-05-27T17:41:28.497Z,12.25
2018-05-27T17:43:56.613Z,12.98
2018-05-27T17:46:25.485Z,13.10
2018-05-27T17:48:53.552Z,11.50
2018-05-27T17:51:21.905Z,10.50
2018-05-27T17:53:49.973Z,10.90
2018-05-27T17:56:18.805Z,10.57
2018-05-27T17:58:46.877Z,9.88
2018-05-27T18:01:15.737Z,10.73
2018-05-27T18:03:44.104Z,10.57
2018-05-27T18:06:12.177Z,10.02
2018-05-27T18:08:40.249Z,11.30
2018-05-27T18:11:08.369Z,10.90
2018-05-27T18:13:37.208Z,12.95
2018-05-27T18:16:05.281Z,11.82
2018-05-27T18:18:33.697Z,12.15
2018-05-27T18:21:02.590Z,12.48
2018-05-27T18:23:30.669Z,12.25
2018-05-27T18:26:00.318Z,12.70
2018-05-27T18:28:28.383Z,12.65
2018-05-27T18:30:56.464Z,12.85
2018-05-27T18:33:24.580Z,13.10
2018-05-27T18:35:52.669Z,13.82
2018-05-27T18:38:20.829Z,12.95
2018-05-27T18:40:48.895Z,12.93
2018-05-27T18:43:17.733Z,13.10
2018-05-27T18:45:45.827Z,13.27
2018-05-27T18:48:14.612Z,11.65
2018-05-27T18:50:42.694Z,11.65
2018-05-27T18:53:12.096Z,12.43
2018-05-27T18:55:40.202Z,13.40
2018-05-27T18:58:09.049Z,11.98
2018-05-27T19:00:37.158Z,11.35
2018-05-27T19:03:06.004Z,11.15
2018-05-27T19:05:34.121Z,10.70
2018-05-27T19:08:02.196Z,12.18
2018-05-27T19:10:31.040Z,12.07
2018-05-27T19:12:59.155Z,12.27
2018-05-27T19:15:27.533Z,12.30
2018-05-27T19:17:56.625Z,11.68
2018-05-27T19:20:24.704Z,11.80
2018-05-27T19:22:53.549Z,11.25
2018-05-27T19:25:22.133Z,12.65
2018-05-27T19:27:50.245Z,12.43
2018-05-27T19:30:18.324Z,11.10
2018-05-27T19:32:47.178Z,11.25
2018-05-27T19:35:15.276Z,10.50
2018-05-27T19:37:43.362Z,9.48
2018-05-27T19:40:12.221Z,9.85
2018-05-27T19:42:40.469Z,12.90
2018-05-27T19:45:08.551Z,11.00
2018-05-27T19:47:36.673Z,12.00
2018-05-27T19:50:05.515Z,12.13
2018-05-27T19:52:33.625Z,11.77
2018-05-27T19:55:02.001Z,12.77
2018-05-27T19:57:30.889Z,12.93
2018-05-27T19:59:58.940Z,12.65
2018-05-27T20:02:28.838Z,11.35
2018-05-27T20:04:56.944Z,11.52
2018-05-27T20:07:25.025Z,13.10
2018-05-27T20:09:54.198Z,15.05
2018-05-27T20:12:22.281Z,16.27
2018-05-27T20:14:50.341Z,13.57
2018-05-27T20:17:19.005Z,14.82
2018-05-27T20:19:47.122Z,16.40
2018-05-27T20:22:15.972Z,18.30
2018-05-27T20:24:44.356Z,16.92
2018-05-27T20:27:13.337Z,17.65
2018-05-27T20:29:41.446Z,19.60
2018-05-27T20:32:09.529Z,15.27
2018-05-27T20:34:38.384Z,13.38
2018-05-27T20:37:06.481Z,14.27
2018-05-27T20:39:34.568Z,13.82
2018-05-27T20:42:03.753Z,14.23
2018-05-27T20:44:32.641Z,16.42
2018-05-27T20:47:00.689Z,14.68
2018-05-27T20:49:29.297Z,15.40
2018-05-27T20:51:57.373Z,16.50
2018-05-27T20:54:26.256Z,15.18
2018-05-27T20:56:54.328Z,13.62
2018-05-27T20:59:22.425Z,14.23
2018-05-27T21:01:51.252Z,14.40
2018-05-27T21:04:19.373Z,16.55
2018-05-27T21:06:47.454Z,16.95
2018-05-27T21:09:16.325Z,16.50
2018-05-27T21:11:44.544Z,17.17
2018-05-27T21:14:13.353Z,15.13
2018-05-27T21:16:41.433Z,14.93
2018-05-27T21:19:09.533Z,15.90
2018-05-27T21:21:39.153Z,15.80
2018-05-27T21:24:07.233Z,15.07
2018-05-27T21:26:36.097Z,15.00
2018-05-27T21:29:04.205Z,14.10
2018-05-27T21:31:32.293Z,15.07
2018-05-27T21:34:00.393Z,15.73
2018-05-27T21:36:28.797Z,15.05
2018-05-27T21:38:57.049Z,12.25
2018-05-27T21:41:25.105Z,11.68
2018-05-27T21:43:54.306Z,11.65
2018-05-27T21:46:22.413Z,11.80
2018-05-27T21:48:50.496Z,13.40
2018-05-27T21:51:20.094Z,13.55
2018-05-27T21:53:48.945Z,13.85
2018-05-27T21:56:17.057Z,14.48
2018-05-27T21:58:45.261Z,13.60
2018-05-27T22:01:14.124Z,15.02
2018-05-27T22:03:42.181Z,14.85
2018-05-27T22:06:10.673Z,14.90
2018-05-27T22:08:39.525Z,14.18
2018-05-27T22:11:07.596Z,14.95
2018-05-27T22:13:36.013Z,13.62
2018-05-27T22:16:05.051Z,14.55
2018-05-27T22:18:33.153Z,14.73
2018-05-27T22:21:01.258Z,14.18
2018-05-27T22:23:30.145Z,14.05
2018-05-27T22:25:58.228Z,14.57
2018-05-27T22:28:27.933Z,14.27
2018-05-27T22:30:56.777Z,14.40
2018-05-27T22:33:25.705Z,13.88
2018-05-27T22:35:54.569Z,13.52
2018-05-27T22:38:22.637Z,13.02
2018-05-27T22:40:50.993Z,12.50
2018-05-27T22:43:19.059Z,12.13
2018-05-27T22:45:47.161Z,12.20
2018-05-27T22:48:15.261Z,11.35
2018-05-27T22:50:43.349Z,11.05
2018-05-27T22:53:12.253Z,11.48
2018-05-27T22:55:40.449Z,12.48
2018-05-27T22:58:08.620Z,12.63
2018-05-27T23:00:36.741Z,13.75
2018-05-27T23:03:04.833Z,13.40
2018-05-27T23:05:33.715Z,13.50
2018-05-27T23:08:02.593Z,14.10
2018-05-27T23:10:30.918Z,12.93
2018-05-27T23:12:59.024Z,12.73
2018-05-27T23:15:27.089Z,14.23
2018-05-27T23:17:55.485Z,14.20
2018-05-27T23:20:23.574Z,13.65
2018-05-27T23:22:52.456Z,13.85
2018-05-27T23:25:20.581Z,14.73
2018-05-27T23:27:48.655Z,15.30
2018-05-27T23:30:16.772Z,14.13
2018-05-27T23:32:44.873Z,13.45
2018-05-27T23:35:13.066Z,13.88
2018-05-27T23:37:41.136Z,12.77
2018-05-27T23:40:09.521Z,13.15
2018-05-27T23:42:37.617Z,13.98
2018-05-27T23:45:05.712Z,14.18
2018-05-27T23:47:33.949Z,13.18
2018-05-27T23:50:02.053Z,13.38
2018-05-27T23:52:30.108Z,12.90
2018-05-27T23:54:58.509Z,13.30
2018-05-27T23:57:26.589Z,12.45
2018-05-27T23:59:56.191Z,12.63
